Time;durP1;ratioP1;P1;durP2;ratioP2;P2;SDS_P1;SDS_P2;PMS_P1;PMS_P2;Temp;Humidity;BMP_temperature;BMP_pressure;BME280_temperature;BME280_humidity;BME280_pressure;Samples;Min_cycle;Max_cycle;Signal;HPM_P1;HPM_P2
2021/09/23 00:01:40;;;;;;;;;15.75;14.75;;;;;18.04;55.07;102081.38;5058583;28;45309;-77
2021/09/23 00:04:32;;;;;;;;;22.75;19.00;;;;;18.01;55.41;102085.63;5058866;28;45445;-78
2021/09/23 00:06:59;;;;;;;;;18.75;16.75;;;;;17.97;55.67;102086.38;5057428;28;45410;-77
2021/09/23 00:09:24;;;;;;;;;17.50;16.00;;;;;17.91;55.58;102087.03;5057636;27;45430;-77
2021/09/23 00:11:50;;;;;;;;;15.25;15.00;;;;;17.81;55.38;102075.31;5058444;28;45313;-76
2021/09/23 00:14:15;;;;;;;;;14.25;14.25;;;;;17.85;55.88;102089.41;5058934;28;45208;-77
2021/09/23 00:16:41;;;;;;;;;16.00;13.00;;;;;17.85;55.59;102098.19;5057474;28;46087;-77
2021/09/23 00:19:08;;;;;;;;;21.25;18.50;;;;;17.79;55.25;102093.63;5058182;28;45273;-76
2021/09/23 00:21:34;;;;;;;;;21.50;19.25;;;;;17.72;56.51;102083.72;5057987;28;45335;-77
2021/09/23 00:24:00;;;;;;;;;13.75;13.75;;;;;17.64;55.91;102080.88;5058332;28;45381;-77
2021/09/23 00:26:26;;;;;;;;;16.50;16.25;;;;;17.60;56.25;102083.31;5058360;28;45414;-77
2021/09/23 00:28:51;;;;;;;;;20.75;17.75;;;;;17.59;56.83;102077.19;5057994;28;45470;-76
2021/09/23 00:31:17;;;;;;;;;18.00;16.75;;;;;17.57;56.84;102078.84;5056480;28;45423;-76
2021/09/23 00:33:43;;;;;;;;;24.25;20.25;;;;;17.59;56.52;102079.78;5058078;28;45264;-78
2021/09/23 00:36:08;;;;;;;;;22.00;19.50;;;;;17.56;56.77;102077.06;5057804;28;45858;-78
2021/09/23 00:38:35;;;;;;;;;20.75;18.00;;;;;17.57;56.82;102081.47;5057631;28;45366;-77
2021/09/23 00:41:00;;;;;;;;;24.00;22.50;;;;;17.54;56.83;102072.59;5057986;28;45232;-77
2021/09/23 00:43:26;;;;;;;;;21.25;18.00;;;;;17.57;56.52;102078.84;5058536;28;45296;-79
2021/09/23 00:45:51;;;;;;;;;18.50;18.50;;;;;17.51;57.01;102072.47;5057454;28;46536;-77
2021/09/23 00:48:17;;;;;;;;;22.75;22.25;;;;;17.51;56.82;102065.53;5057828;28;45363;-78
2021/09/23 00:50:43;;;;;;;;;19.75;18.25;;;;;17.48;57.09;102060.19;5057599;28;45338;-77
2021/09/23 00:53:10;;;;;;;;;15.75;15.75;;;;;17.42;57.29;102046.88;5057955;28;45303;-77
2021/09/23 00:55:35;;;;;;;;;19.75;19.25;;;;;17.40;57.56;102049.41;5057408;28;45420;-77
2021/09/23 00:58:03;;;;;;;;;19.25;15.50;;;;;17.47;57.17;102061.00;5057605;28;45400;-77
2021/09/23 01:00:29;;;;;;;;;22.25;17.75;;;;;17.45;57.20;102050.50;5058060;28;45279;-76
2021/09/23 01:02:55;;;;;;;;;23.75;20.75;;;;;17.43;57.21;102035.56;5058171;28;45168;-77
2021/09/23 01:05:20;;;;;;;;;16.00;14.75;;;;;17.43;57.28;102025.97;5057439;28;45184;-77
2021/09/23 01:07:48;;;;;;;;;20.50;18.75;;;;;17.40;57.37;102024.97;5056963;28;45223;-77
2021/09/23 01:10:15;;;;;;;;;21.25;18.75;;;;;17.31;57.37;102012.44;5057582;28;45356;-78
2021/09/23 01:12:41;;;;;;;;;17.50;17.50;;;;;17.25;57.54;102010.50;5056269;28;45463;-78
2021/09/23 01:15:08;;;;;;;;;21.50;16.00;;;;;17.15;58.04;101998.81;5057289;28;46064;-76
2021/09/23 01:17:35;;;;;;;;;21.25;19.00;;;;;17.10;58.31;101996.84;5056808;28;45733;-78
2021/09/23 01:20:00;;;;;;;;;19.75;18.00;;;;;17.06;58.01;102005.41;5057310;28;45339;-76
2021/09/23 01:22:26;;;;;;;;;23.00;18.75;;;;;17.01;58.37;102007.88;5057575;28;45383;-77
2021/09/23 01:24:52;;;;;;;;;22.00;16.25;;;;;17.00;58.13;102001.75;5057364;28;46508;-77
2021/09/23 01:27:18;;;;;;;;;20.00;17.75;;;;;16.99;58.24;101994.75;5056694;28;45383;-79
2021/09/23 01:29:44;;;;;;;;;20.00;18.00;;;;;16.98;58.10;101989.44;5057050;28;45427;-79
2021/09/23 01:32:10;;;;;;;;;21.50;19.50;;;;;16.95;58.39;101989.34;5057485;28;45287;-79
2021/09/23 01:34:39;;;;;;;;;16.50;16.25;;;;;16.94;58.19;101984.94;5056794;28;45437;-79
2021/09/23 01:37:05;;;;;;;;;24.00;20.25;;;;;16.92;58.39;101994.41;5057145;28;45305;-79
2021/09/23 01:39:30;;;;;;;;;19.75;19.25;;;;;16.86;58.29;101990.72;5057375;28;45209;-79
2021/09/23 01:41:57;;;;;;;;;19.50;17.00;;;;;16.82;58.74;101977.47;5057404;28;45474;-79
2021/09/23 01:44:23;;;;;;;;;21.00;18.50;;;;;16.84;58.99;101981.94;5057297;28;45506;-79
2021/09/23 01:46:49;;;;;;;;;22.75;17.25;;;;;16.86;58.97;101972.41;5059169;28;45359;-79
2021/09/23 01:49:15;;;;;;;;;20.50;16.75;;;;;16.89;58.97;101973.34;5060365;28;45360;-79
2021/09/23 01:51:40;;;;;;;;;18.25;18.25;;;;;16.89;58.87;101973.34;5057344;28;45365;-80
2021/09/23 01:54:06;;;;;;;;;21.25;17.50;;;;;16.90;59.02;101972.53;5056840;28;45809;-79
2021/09/23 01:56:32;;;;;;;;;21.50;17.50;;;;;16.90;58.86;101973.41;5055772;28;45323;-79
2021/09/23 01:58:58;;;;;;;;;17.00;15.00;;;;;16.90;58.47;101972.53;5056951;28;45323;-79
2021/09/23 02:01:23;;;;;;;;;22.00;20.50;;;;;16.89;58.85;101970.75;5057935;28;45209;-78
2021/09/23 02:03:49;;;;;;;;;22.75;19.50;;;;;16.86;58.86;101972.41;5056390;28;45253;-79
2021/09/23 02:06:15;;;;;;;;;17.25;17.00;;;;;16.78;58.78;101968.63;5056625;28;45191;-78
2021/09/23 02:08:40;;;;;;;;;19.75;19.50;;;;;16.83;59.18;101971.41;5056418;28;45285;-79
2021/09/23 02:11:06;;;;;;;;;21.00;21.00;;;;;16.79;59.34;101954.72;5056732;28;45201;-80
2021/09/23 02:13:32;;;;;;;;;24.50;22.75;;;;;16.77;59.42;101951.13;5056396;28;45248;-79
2021/09/23 02:15:58;;;;;;;;;19.75;18.25;;;;;16.79;59.11;101957.31;5056524;28;45319;-79
2021/09/23 02:18:24;;;;;;;;;20.00;17.00;;;;;16.75;59.10;101952.78;5056788;28;45465;-76
2021/09/23 02:20:50;;;;;;;;;18.75;17.00;;;;;16.71;59.37;101949.19;5056509;28;45409;-78
2021/09/23 02:23:17;;;;;;;;;17.50;14.75;;;;;16.74;59.23;101951.00;5056043;28;45799;-76
2021/09/23 02:25:43;;;;;;;;;20.50;16.00;;;;;16.72;59.23;101947.47;5056417;28;45752;-79
2021/09/23 02:28:09;;;;;;;;;19.75;17.75;;;;;16.70;59.30;101941.28;5056738;28;45374;-77
2021/09/23 02:30:34;;;;;;;;;18.50;16.75;;;;;16.65;59.11;101941.13;5055688;28;45636;-76
2021/09/23 02:33:00;;;;;;;;;19.25;17.75;;;;;16.64;59.23;101949.78;5055983;28;45386;-76
2021/09/23 02:35:26;;;;;;;;;20.50;17.25;;;;;16.67;59.28;101952.53;5056660;28;45244;-76
2021/09/23 02:37:52;;;;;;;;;17.75;15.75;;;;;16.64;58.94;101956.72;5056885;28;45531;-77
2021/09/23 02:40:18;;;;;;;;;25.25;18.00;;;;;16.55;59.01;101947.72;5056740;28;45676;-79
2021/09/23 02:42:44;;;;;;;;;19.00;18.00;;;;;16.57;59.06;101947.78;5055643;28;45346;-76
2021/09/23 02:45:12;;;;;;;;;18.75;16.75;;;;;16.59;59.38;101950.44;5056009;28;45326;-76
2021/09/23 02:47:38;;;;;;;;;21.75;19.25;;;;;16.56;59.52;101940.78;5055528;28;45411;-77
2021/09/23 02:50:04;;;;;;;;;16.00;16.00;;;;;16.49;59.49;101939.63;5055907;28;45468;-78
2021/09/23 02:52:30;;;;;;;;;14.00;13.75;;;;;16.48;59.25;101944.78;5056135;28;45241;-76
2021/09/23 02:54:55;;;;;;;;;17.75;17.75;;;;;16.48;59.39;101950.03;5056282;28;45237;-77
2021/09/23 02:57:21;;;;;;;;;16.00;14.75;;;;;16.40;59.27;101934.94;5056014;28;45378;-76
2021/09/23 02:59:47;;;;;;;;;19.00;17.50;;;;;16.43;59.79;101946.34;5056090;28;45358;-76
2021/09/23 03:02:12;;;;;;;;;19.75;17.75;;;;;16.40;59.95;101945.41;5055764;28;45251;-77
2021/09/23 03:04:38;;;;;;;;;21.50;17.75;;;;;16.38;59.56;101933.97;5055206;28;45347;-76
2021/09/23 03:07:04;;;;;;;;;19.50;15.75;;;;;16.37;59.48;101929.59;5055864;28;45419;-75
2021/09/23 03:09:29;;;;;;;;;16.75;16.25;;;;;16.36;59.53;101930.41;5055820;28;45366;-76
2021/09/23 03:11:56;;;;;;;;;18.50;17.25;;;;;16.35;59.67;101923.44;5054577;28;46302;-77
2021/09/23 03:14:21;;;;;;;;;17.50;15.75;;;;;16.35;59.64;101923.44;5055678;28;45877;-76
2021/09/23 03:16:47;;;;;;;;;18.75;16.25;;;;;16.34;59.69;101926.88;5054339;28;45469;-80
2021/09/23 03:19:12;;;;;;;;;18.25;17.25;;;;;16.34;59.55;101920.75;5056494;28;45595;-78
2021/09/23 03:21:38;;;;;;;;;18.50;17.25;;;;;16.33;59.78;101916.34;5055141;28;46493;-77
2021/09/23 03:24:05;;;;;;;;;16.50;15.00;;;;;16.30;59.92;101916.25;5062472;28;45300;-77
2021/09/23 03:26:31;;;;;;;;;16.75;13.75;;;;;16.17;59.68;101896.56;5061222;28;45238;-78
2021/09/23 03:28:57;;;;;;;;;17.75;15.25;;;;;16.19;59.77;101906.25;5056427;28;45735;-77
2021/09/23 03:31:22;;;;;;;;;19.50;17.00;;;;;16.16;59.96;101906.13;5055709;28;45267;-75
2021/09/23 03:33:48;;;;;;;;;19.00;17.25;;;;;16.13;59.95;101910.34;5054685;28;45308;-77
2021/09/23 03:36:13;;;;;;;;;20.00;18.75;;;;;16.08;59.78;101911.03;5055399;28;45383;-76
2021/09/23 03:38:41;;;;;;;;;23.00;18.75;;;;;16.02;60.23;101907.28;5055399;28;45369;-76
2021/09/23 03:41:07;;;;;;;;;19.50;18.25;;;;;16.02;60.25;101904.69;5057026;28;45379;-78
2021/09/23 03:43:33;;;;;;;;;19.75;18.00;;;;;16.01;60.04;101905.50;5057345;28;45755;-77
2021/09/23 03:46:04;;;;;;;;;16.50;15.75;;;;;15.96;60.64;101909.69;5058817;28;45261;-76
2021/09/23 03:48:31;;;;;;;;;17.75;16.50;;;;;15.93;60.92;101908.72;5058692;28;45417;-77
2021/09/23 03:50:58;;;;;;;;;18.25;17.00;;;;;15.90;60.81;101908.59;5059026;28;45363;-79
2021/09/23 03:53:24;;;;;;;;;17.50;17.00;;;;;15.88;60.49;101901.53;5059199;28;45182;-78
2021/09/23 03:55:50;;;;;;;;;16.50;15.75;;;;;15.84;60.67;101899.56;5059564;28;45310;-77
2021/09/23 03:58:16;;;;;;;;;14.00;13.00;;;;;15.78;60.48;101892.38;5058835;28;45579;-78
2021/09/23 04:00:42;;;;;;;;;16.75;14.25;;;;;15.77;60.38;101894.09;5058232;28;46087;-79
2021/09/23 04:03:07;;;;;;;;;19.25;17.25;;;;;15.82;60.41;101911.69;5058532;28;45307;-78
2021/09/23 04:05:33;;;;;;;;;13.25;12.25;;;;;15.79;60.41;101915.06;5058149;28;45291;-78
2021/09/23 04:08:00;;;;;;;;;18.25;14.75;;;;;15.76;60.24;101913.22;5058835;28;45506;-78
2021/09/23 04:10:26;;;;;;;;;20.25;19.50;;;;;15.71;60.89;101901.66;5063884;28;45320;-78
2021/09/23 04:12:55;;;;;;;;;16.75;15.75;;;;;15.71;60.45;101900.78;5065246;28;45856;-77
2021/09/23 04:15:23;;;;;;;;;11.75;10.75;;;;;15.72;60.72;101913.03;5059112;28;45243;-77
2021/09/23 04:17:49;;;;;;;;;20.00;16.75;;;;;15.70;60.28;101904.22;5059259;28;45535;-75
2021/09/23 04:20:15;;;;;;;;;16.00;15.50;;;;;15.64;60.11;101902.25;5058590;28;46349;-76
2021/09/23 04:22:40;;;;;;;;;15.25;14.75;;;;;15.68;60.68;101914.63;5056845;28;45431;-78
2021/09/23 04:25:06;;;;;;;;;13.50;12.50;;;;;15.65;60.75;101914.50;5058167;28;45413;-78
2021/09/23 04:27:32;;;;;;;;;16.25;15.50;;;;;15.60;60.57;101900.38;5053367;28;45394;-78
2021/09/23 04:29:58;;;;;;;;;13.75;13.00;;;;;15.65;60.47;101903.16;5037929;28;45919;-78
2021/09/23 04:32:23;;;;;;;;;15.00;14.75;;;;;15.60;60.71;101906.47;5038429;28;45438;-78
2021/09/23 04:34:49;;;;;;;;;19.00;17.50;;;;;15.62;60.35;101915.25;5037721;28;45248;-76
2021/09/23 04:37:15;;;;;;;;;14.50;12.50;;;;;15.62;60.28;101914.34;5038309;28;45179;-76
2021/09/23 04:39:41;;;;;;;;;20.50;15.75;;;;;15.60;60.17;101910.81;5038910;28;45180;-78
2021/09/23 04:42:06;;;;;;;;;18.25;16.25;;;;;15.54;60.26;101902.69;5057885;28;45405;-80
2021/09/23 04:44:33;;;;;;;;;16.50;16.25;;;;;15.57;60.27;101902.84;5057813;28;45346;-77
2021/09/23 04:47:02;;;;;;;;;18.50;16.50;;;;;15.60;60.31;101909.06;5058446;28;45446;-78
2021/09/23 04:49:28;;;;;;;;;17.25;16.75;;;;;15.59;60.80;101911.63;5057489;28;45428;-77
2021/09/23 04:51:54;;;;;;;;;15.50;14.25;;;;;15.57;60.62;101914.16;5057443;28;45858;-77
2021/09/23 04:54:20;;;;;;;;;15.75;14.75;;;;;15.51;60.51;101906.09;5057889;28;45224;-77
2021/09/23 04:56:46;;;;;;;;;20.50;16.75;;;;;15.55;60.46;101904.50;5059041;28;45365;-76
2021/09/23 04:59:13;;;;;;;;;17.00;16.25;;;;;15.55;60.70;101921.03;5061161;28;47931;-77
2021/09/23 05:01:38;;;;;;;;;17.00;17.00;;;;;15.52;60.54;101917.41;5058399;28;46066;-77
2021/09/23 05:04:04;;;;;;;;;16.25;13.50;;;;;15.48;60.45;101921.59;5058345;28;45362;-76
2021/09/23 05:06:30;;;;;;;;;17.25;17.25;;;;;15.46;60.32;101918.03;5057782;28;45567;-76
2021/09/23 05:09:02;;;;;;;;;18.25;15.75;;;;;15.42;60.82;101905.69;5057772;28;45264;-76
2021/09/23 05:11:28;;;;;;;;;18.25;17.25;;;;;15.47;60.13;101927.66;5056506;28;45794;-77
2021/09/23 05:13:54;;;;;;;;;19.00;17.00;;;;;15.43;60.70;101925.75;5057296;28;45409;-76
2021/09/23 05:16:23;;;;;;;;;12.75;12.75;;;;;15.38;60.81;101935.09;5057172;28;46377;-76
2021/09/23 05:18:48;;;;;;;;;18.25;15.25;;;;;15.35;60.66;101938.47;5055164;28;47186;-75
2021/09/23 05:21:14;;;;;;;;;19.50;16.00;;;;;15.29;60.77;101936.47;5057068;28;45232;-76
2021/09/23 05:23:39;;;;;;;;;19.50;16.50;;;;;15.26;61.00;101938.94;5057031;28;45239;-76
2021/09/23 05:26:05;;;;;;;;;15.00;14.75;;;;;15.26;60.47;101946.78;5056299;28;45501;-76
2021/09/23 05:28:31;;;;;;;;;19.25;16.00;;;;;15.26;60.66;101949.38;5055875;28;46008;-76
2021/09/23 05:30:57;;;;;;;;;21.75;17.50;;;;;15.26;60.71;101957.22;5056303;28;45413;-75
2021/09/23 05:33:23;;;;;;;;;17.50;15.50;;;;;15.14;61.21;101943.63;5055479;28;45459;-76
2021/09/23 05:35:49;;;;;;;;;24.50;20.75;;;;;15.20;61.15;101945.59;5056017;28;45602;-79
2021/09/23 05:38:15;;;;;;;;;19.00;15.25;;;;;15.17;60.85;101947.25;5056000;28;45385;-76
2021/09/23 05:40:42;;;;;;;;;17.25;16.25;;;;;15.22;60.69;101955.31;5055260;28;45917;-78
2021/09/23 05:43:09;;;;;;;;;17.00;14.75;;;;;15.23;60.80;101958.81;5078059;28;45391;-77
2021/09/23 05:45:35;;;;;;;;;16.25;15.50;;;;;15.19;60.95;101954.25;5060081;28;45322;-76
2021/09/23 05:48:00;;;;;;;;;18.25;17.00;;;;;15.14;61.28;101957.56;5057286;28;45373;-75
2021/09/23 05:50:26;;;;;;;;;18.00;16.75;;;;;15.08;61.13;101948.56;5059358;28;45420;-77
2021/09/23 05:52:52;;;;;;;;;16.75;15.25;;;;;15.09;60.89;101956.47;5057669;28;45272;-83
2021/09/23 05:55:18;;;;;;;;;19.50;17.00;;;;;15.09;61.45;101959.06;5057391;28;45209;-78
2021/09/23 05:57:43;;;;;;;;;17.75;16.50;;;;;15.14;61.24;101959.28;5054759;28;45635;-82
2021/09/23 06:00:15;;;;;;;;;16.75;15.00;;;;;15.06;60.87;101950.22;5057897;28;45500;-80
2021/09/23 06:02:42;;;;;;;;;19.25;16.75;;;;;15.05;61.00;101961.47;5057306;28;45276;-78
2021/09/23 06:05:10;;;;;;;;;20.25;19.00;;;;;15.15;60.90;101975.00;5056749;28;45556;-81
2021/09/23 06:07:35;;;;;;;;;23.25;19.50;;;;;15.09;61.26;101956.47;5056519;28;45569;-80
2021/09/23 06:10:01;;;;;;;;;23.00;22.00;;;;;15.13;61.12;101971.44;5059047;28;45394;-83
2021/09/23 06:12:27;;;;;;;;;19.00;17.50;;;;;15.13;61.28;101975.75;5066086;28;46272;-79
2021/09/23 06:14:52;;;;;;;;;17.50;15.50;;;;;15.16;61.21;101976.81;5062535;28;45498;-80
2021/09/23 06:17:18;;;;;;;;;20.25;18.75;;;;;15.22;61.26;101975.28;5062028;28;47050;-81
2021/09/23 06:19:44;;;;;;;;;22.00;18.00;;;;;15.12;61.39;101963.53;5057541;28;45354;-81
2021/09/23 06:22:09;;;;;;;;;21.00;18.25;;;;;15.03;61.22;101956.19;5054401;28;45270;-82
2021/09/23 06:24:35;;;;;;;;;20.50;18.75;;;;;15.16;61.35;101986.31;5054003;28;45496;-82
2021/09/23 06:27:02;;;;;;;;;21.50;19.25;;;;;15.16;61.01;101975.88;5051129;28;46939;-80
2021/09/23 06:29:27;;;;;;;;;18.50;18.50;;;;;15.13;61.15;101979.25;5042751;28;46048;-81
2021/09/23 06:31:54;;;;;;;;;21.25;17.00;;;;;15.20;60.95;101992.56;5056990;28;45338;-81
2021/09/23 06:34:21;;;;;;;;;21.75;21.25;;;;;15.08;61.13;101967.72;5057504;28;45757;-79
2021/09/23 06:36:47;;;;;;;;;18.50;16.75;;;;;15.24;61.30;101989.28;5054355;28;45527;-78
2021/09/23 06:39:13;;;;;;;;;21.25;18.50;;;;;15.26;60.99;101992.84;5054699;28;45639;-79
2021/09/23 06:41:38;;;;;;;;;19.25;17.25;;;;;15.23;61.15;101988.38;5055813;28;45433;-80
2021/09/23 06:44:05;;;;;;;;;23.50;21.00;;;;;15.27;60.96;101995.53;5057618;28;45234;-81
2021/09/23 06:46:32;;;;;;;;;22.00;16.50;;;;;15.25;61.06;101991.06;5056888;28;47324;-81
2021/09/23 06:48:58;;;;;;;;;18.75;17.50;;;;;15.22;61.54;101986.63;5055668;28;45678;-80
2021/09/23 06:51:23;;;;;;;;;18.75;17.75;;;;;15.14;61.17;101981.06;5056685;28;45543;-79
2021/09/23 06:53:49;;;;;;;;;23.50;20.75;;;;;15.19;61.46;101988.16;5056273;28;45691;-81
2021/09/23 06:56:16;;;;;;;;;26.00;20.25;;;;;15.22;61.32;101988.31;5056289;28;46083;-80
2021/09/23 06:58:41;;;;;;;;;21.75;19.00;;;;;15.17;61.74;101993.34;5055804;28;45995;-80
2021/09/23 07:01:08;;;;;;;;;20.25;18.25;;;;;15.20;61.76;101992.56;5055307;28;45660;-80
2021/09/23 07:03:34;;;;;;;;;20.50;17.50;;;;;15.27;61.10;101998.13;5055712;28;45497;-81
2021/09/23 07:06:00;;;;;;;;;21.25;19.75;;;;;15.32;61.11;102000.94;5055307;28;46516;-81
2021/09/23 07:08:26;;;;;;;;;24.00;20.75;;;;;15.31;61.49;101987.03;5055235;28;46016;-79
2021/09/23 07:10:52;;;;;;;;;25.00;21.75;;;;;15.35;61.63;101984.53;5052826;28;45457;-83
2021/09/23 07:13:18;;;;;;;;;26.25;22.25;;;;;15.35;61.27;101993.25;5057283;28;45551;-83
2021/09/23 07:15:44;;;;;;;;;22.00;22.00;;;;;15.34;61.52;101988.88;5062332;28;45932;-81
2021/09/23 07:18:10;;;;;;;;;19.25;18.50;;;;;15.29;61.47;101979.94;5064339;28;45412;-82
2021/09/23 07:20:36;;;;;;;;;24.50;20.50;;;;;15.24;61.23;101976.25;5064225;28;45389;-83
2021/09/23 07:23:01;;;;;;;;;21.25;20.25;;;;;15.22;61.60;101967.44;5063021;28;45542;-85
2021/09/23 07:25:27;;;;;;;;;23.25;20.25;;;;;15.37;61.18;101993.31;5059894;28;45378;-82
2021/09/23 07:27:54;;;;;;;;;22.75;20.25;;;;;15.41;61.02;101987.41;5059631;28;45318;-81
2021/09/23 07:30:21;;;;;;;;;25.75;22.50;;;;;15.43;61.76;101984.03;5058045;28;45230;-82
2021/09/23 07:32:48;;;;;;;;;21.00;19.25;;;;;15.37;61.33;101956.78;5058490;28;45236;-81
2021/09/23 07:35:13;;;;;;;;;22.00;18.25;;;;;15.49;61.54;101962.53;5056856;28;46015;-80
2021/09/23 07:37:39;;;;;;;;;25.00;23.25;;;;;15.52;61.20;101972.22;5057942;28;46143;-83
2021/09/23 07:40:08;;;;;;;;;21.25;19.00;;;;;15.55;61.00;101968.00;5061061;28;45373;-80
2021/09/23 07:42:34;;;;;;;;;32.00;27.75;;;;;15.53;61.36;101948.81;5057070;28;45578;-79
2021/09/23 07:45:01;;;;;;;;;22.25;21.25;;;;;15.63;61.36;101955.28;5058186;28;46005;-79
2021/09/23 07:47:26;;;;;;;;;22.50;20.25;;;;;15.62;61.24;101951.81;5057932;28;45830;-79
2021/09/23 07:49:52;;;;;;;;;26.00;22.25;;;;;15.70;61.19;101957.34;5058707;28;45388;-78
2021/09/23 07:52:18;;;;;;;;;19.25;17.25;;;;;15.76;61.19;101956.72;5058490;28;45532;-77
2021/09/23 07:54:44;;;;;;;;;24.00;21.00;;;;;15.77;60.82;101951.56;5056850;28;46026;-78
2021/09/23 07:57:11;;;;;;;;;27.00;22.25;;;;;15.81;61.04;101949.97;5060846;28;45445;-80
2021/09/23 07:59:37;;;;;;;;;21.00;20.00;;;;;15.86;60.70;101953.69;5058023;28;45344;-79
2021/09/23 08:02:04;;;;;;;;;24.00;23.25;;;;;15.90;60.61;101949.50;5058740;28;45331;-80
2021/09/23 08:04:29;;;;;;;;;27.50;27.50;;;;;15.89;60.71;101947.69;5057149;28;45320;-80
2021/09/23 08:06:55;;;;;;;;;23.00;20.75;;;;;15.96;60.65;101970.63;5058477;28;45302;-79
2021/09/23 08:09:21;;;;;;;;;30.50;24.50;;;;;15.99;60.78;101970.75;5058116;28;45309;-80
2021/09/23 08:11:46;;;;;;;;;27.00;26.00;;;;;15.93;60.97;101952.22;5058240;28;45389;-79
2021/09/23 08:14:13;;;;;;;;;31.50;27.75;;;;;15.96;60.84;101956.69;5057861;28;46073;-82
2021/09/23 08:16:39;;;;;;;;;27.00;24.75;;;;;16.06;60.77;101959.72;5065247;28;46031;-78
2021/09/23 08:19:04;;;;;;;;;26.25;26.25;;;;;16.13;60.35;101965.22;5078169;27;45458;-78
2021/09/23 08:21:31;;;;;;;;;28.50;24.50;;;;;16.16;60.42;101967.94;5078237;28;45473;-80
2021/09/23 08:23:57;;;;;;;;;26.50;24.25;;;;;16.19;60.24;101970.69;5074942;27;45898;-79
2021/09/23 08:26:24;;;;;;;;;24.75;22.50;;;;;16.16;60.40;101954.88;5057405;28;46049;-80
2021/09/23 08:28:53;;;;;;;;;24.25;21.00;;;;;16.27;60.23;101968.38;5057450;28;45397;-78
2021/09/23 08:31:20;;;;;;;;;25.25;21.00;;;;;16.29;60.15;101966.72;5057956;28;45568;-80
2021/09/23 08:33:46;;;;;;;;;22.00;21.25;;;;;16.35;60.34;101974.78;5057420;28;45315;-80
2021/09/23 08:36:11;;;;;;;;;25.25;24.50;;;;;16.40;60.37;101970.66;5062153;28;45901;-78
2021/09/23 08:38:37;;;;;;;;;24.00;22.25;;;;;16.44;59.97;101958.59;5065415;28;44907;-82
2021/09/23 08:41:04;;;;;;;;;26.00;22.75;;;;;16.47;59.60;101962.22;5060812;28;45300;-78
2021/09/23 08:43:29;;;;;;;;;17.50;13.00;;;;;16.49;59.54;101965.78;5038524;28;46261;-79
2021/09/23 08:45:56;;;;;;;;;28.75;24.00;;;;;16.53;59.47;101972.03;5067470;28;45370;-78
2021/09/23 08:48:23;;;;;;;;;26.75;20.75;;;;;16.55;59.53;101972.97;5063858;27;45455;-77
2021/09/23 08:50:49;;;;;;;;;32.25;23.50;;;;;16.50;59.65;101958.81;5057481;28;45284;-78
2021/09/23 08:53:15;;;;;;;;;22.75;22.00;;;;;16.61;59.42;101972.31;5056196;28;45394;-79
2021/09/23 08:55:40;;;;;;;;;24.75;21.00;;;;;16.65;59.18;101969.88;5056910;28;45906;-83
2021/09/23 08:58:07;;;;;;;;;22.00;19.50;;;;;16.64;59.17;101957.63;5056619;28;45441;-81
2021/09/23 09:00:57;;;;;;;;;17.25;17.00;;;;;16.70;58.27;101962.22;5057256;28;45631;-80
2021/09/23 09:03:25;;;;;;;;;23.25;18.00;;;;;16.75;58.73;101970.22;5057743;28;46645;-81
2021/09/23 09:05:53;;;;;;;;;20.00;18.75;;;;;16.79;58.24;101965.16;5057053;28;45256;-81
2021/09/23 09:08:21;;;;;;;;;17.50;16.75;;;;;16.81;57.97;101973.97;5057291;28;45249;-83
2021/09/23 09:10:47;;;;;;;;;19.75;17.75;;;;;16.81;57.96;101960.91;5056334;28;45180;-82
2021/09/23 09:13:13;;;;;;;;;22.75;19.25;;;;;16.90;57.74;101976.00;5060589;28;45512;-84
2021/09/23 09:15:41;;;;;;;;;19.75;16.75;;;;;16.93;57.67;101972.66;5056551;28;45358;-79
2021/09/23 09:18:17;;;;;;;;;20.00;16.50;;;;;16.93;57.35;101954.34;5056905;28;45343;-79
2021/09/23 09:21:04;;;;;;;;;22.25;19.00;;;;;16.99;57.29;101958.09;5061043;28;45541;-81
2021/09/23 09:23:52;;;;;;;;;17.50;16.00;;;;;17.06;57.23;101961.81;5056789;28;45503;-80
2021/09/23 09:26:37;;;;;;;;;19.00;17.50;;;;;17.01;57.17;101951.19;5053456;28;45670;-79
2021/09/23 09:29:05;;;;;;;;;17.25;16.25;;;;;17.07;57.47;101955.75;5055492;28;45322;-80
2021/09/23 09:31:32;;;;;;;;;26.00;19.00;;;;;17.10;57.19;101952.38;5055408;28;45617;-83
2021/09/23 09:34:00;;;;;;;;;21.00;19.00;;;;;17.22;57.21;101970.22;5056487;28;45913;-80
2021/09/23 09:36:27;;;;;;;;;21.25;18.75;;;;;17.21;57.65;101957.97;5056831;28;45318;-81
2021/09/23 09:38:55;;;;;;;;;21.25;19.75;;;;;17.28;57.23;101958.25;5056720;28;45299;-78
2021/09/23 09:41:28;;;;;;;;;23.00;20.25;;;;;17.33;57.55;101950.56;5056471;28;45472;-77
2021/09/23 09:43:56;;;;;;;;;19.75;19.00;;;;;17.39;57.45;101947.28;5055908;28;45536;-79
2021/09/23 09:46:24;;;;;;;;;22.75;20.75;;;;;17.42;57.50;101947.41;5055086;28;45844;-77
2021/09/23 09:48:52;;;;;;;;;22.75;21.50;;;;;17.47;57.11;101938.88;5055184;28;45255;-79
2021/09/23 09:51:21;;;;;;;;;25.25;22.75;;;;;17.51;57.17;101931.09;5056709;28;45430;-77
2021/09/23 09:54:00;;;;;;;;;19.75;18.50;;;;;17.57;57.05;101928.69;5057682;28;45421;-76
2021/09/23 09:56:26;;;;;;;;;24.25;23.00;;;;;17.62;56.93;101932.34;5075384;28;45754;-82
2021/09/23 09:59:17;;;;;;;;;25.25;22.25;;;;;17.66;56.83;101935.94;5076654;27;45394;-79
2021/09/23 10:01:49;;;;;;;;;25.50;23.00;;;;;17.60;56.83;101913.09;5058996;28;45308;-81
2021/09/23 10:04:17;;;;;;;;;21.50;17.50;;;;;17.67;56.50;101925.56;5043285;28;45597;-79
2021/09/23 10:06:43;;;;;;;;;23.75;21.75;;;;;17.76;56.29;101925.84;5065077;28;45897;-80
2021/09/23 10:09:12;;;;;;;;;23.00;21.00;;;;;17.85;55.85;101932.22;5059150;28;45523;-77
2021/09/23 10:11:43;;;;;;;;;20.00;17.50;;;;;17.81;55.59;101926.00;5070726;28;45512;-79
2021/09/23 10:14:11;;;;;;;;;27.25;19.50;;;;;17.91;55.54;101933.31;5056451;28;45499;-81
2021/09/23 10:16:37;;;;;;;;;21.75;20.00;;;;;17.94;55.16;101927.28;5055921;28;45928;-79
2021/09/23 10:19:06;;;;;;;;;27.25;19.75;;;;;17.89;55.31;101903.56;5055618;28;45294;-82
2021/09/23 10:21:33;;;;;;;;;23.50;20.00;;;;;18.03;54.93;101924.09;5055898;28;45443;-81
2021/09/23 10:24:01;;;;;;;;;20.00;18.75;;;;;17.99;54.92;101906.50;5055248;28;45512;-79
2021/09/23 10:26:32;;;;;;;;;20.00;16.75;;;;;18.08;54.57;101922.53;5055923;28;45376;-80
2021/09/23 10:29:01;;;;;;;;;24.50;23.50;;;;;18.13;54.24;101920.94;5056031;28;45397;-81
2021/09/23 10:31:32;;;;;;;;;19.75;17.00;;;;;18.16;54.11;101910.56;5053940;28;45283;-78
2021/09/23 10:34:00;;;;;;;;;19.50;17.50;;;;;18.18;53.71;101911.50;5055801;28;46001;-78
2021/09/23 10:36:32;;;;;;;;;15.75;15.00;;;;;18.23;53.53;101898.53;5060388;28;45761;-82
2021/09/23 10:39:00;;;;;;;;;20.75;17.25;;;;;18.26;53.73;101901.22;5053758;28;45619;-78
2021/09/23 10:41:27;;;;;;;;;17.75;14.25;;;;;18.27;53.33;101894.28;5061726;28;45455;-80
2021/09/23 10:43:56;;;;;;;;;21.75;16.00;;;;;18.30;52.82;101891.75;5053626;28;45307;-77
2021/09/23 10:46:25;;;;;;;;;16.75;16.50;;;;;18.31;53.03;101883.00;5053956;27;45619;-77
2021/09/23 10:48:52;;;;;;;;;19.75;19.25;;;;;18.37;53.09;101883.22;5056920;28;45339;-77
2021/09/23 10:51:18;;;;;;;;;18.50;16.00;;;;;18.38;53.16;101883.25;5056211;28;45334;-75
2021/09/23 10:53:53;;;;;;;;;16.75;14.75;;;;;18.43;52.61;101879.88;5056083;28;46169;-76
2021/09/23 10:56:20;;;;;;;;;20.75;16.50;;;;;18.40;52.92;101860.59;5056974;28;45338;-77
2021/09/23 10:58:50;;;;;;;;;19.25;16.25;;;;;18.49;52.42;101870.47;5055480;28;45421;-76
2021/09/23 11:01:31;;;;;;;;;19.00;18.50;;;;;18.52;52.98;101857.41;5056096;28;45232;-80
2021/09/23 11:04:01;;;;;;;;;17.25;15.50;;;;;18.56;52.77;101861.06;5055949;28;46461;-76
2021/09/23 11:06:36;;;;;;;;;20.00;16.75;;;;;18.59;52.91;101849.75;5053844;28;45457;-76
2021/09/23 11:09:23;;;;;;;;;18.25;18.25;;;;;18.63;52.91;101863.00;5056361;28;45303;-76